Time;durP1;ratioP1;P1;durP2;ratioP2;P2;SDS_P1;SDS_P2;PMS_P1;PMS_P2;Temp;Humidity;BMP_temperature;BMP_pressure;BME280_temperature;BME280_humidity;BME280_pressure;Samples;Min_cycle;Max_cycle;Signal;HPM_P1;HPM_P2
2023/06/20 00:01:49;;;;;;;14.57;10.50;;;18.00;99.90;;;;;;5005203;28;20054;-69
2023/06/20 00:04:15;;;;;;;14.32;9.60;;;18.00;99.90;;;;;;5006470;28;20080;-70
2023/06/20 00:06:40;;;;;;;14.93;10.55;;;18.00;99.90;;;;;;5007274;28;20038;-69
2023/06/20 00:09:06;;;;;;;15.82;10.35;;;18.00;99.90;;;;;;5006526;28;20752;-69
2023/06/20 00:11:32;;;;;;;17.17;10.32;;;18.00;99.90;;;;;;5008395;28;20042;-69
2023/06/20 00:13:57;;;;;;;16.55;11.13;;;18.00;99.90;;;;;;4990936;28;20049;-69
2023/06/20 00:16:24;;;;;;;15.20;10.90;;;18.00;99.90;;;;;;5007762;28;20824;-69
2023/06/20 00:18:53;;;;;;;16.92;11.15;;;18.00;99.90;;;;;;5008981;28;20068;-69
2023/06/20 00:21:25;;;;;;;20.05;11.60;;;18.00;99.90;;;;;;5008676;28;20045;-69
2023/06/20 00:23:55;;;;;;;17.65;11.55;;;18.00;99.90;;;;;;5008360;28;20046;-69
2023/06/20 00:26:21;;;;;;;17.52;11.20;;;18.00;99.90;;;;;;5003829;28;20042;-70
2023/06/20 00:28:49;;;;;;;22.25;12.13;;;18.00;99.90;;;;;;5007703;28;20099;-70
2023/06/20 00:31:15;;;;;;;16.98;11.82;;;17.90;99.90;;;;;;5005690;28;20556;-69
2023/06/20 00:33:40;;;;;;;19.80;11.68;;;17.90;99.90;;;;;;4988645;28;20042;-69
2023/06/20 00:36:06;;;;;;;18.77;11.02;;;17.90;99.90;;;;;;5025150;28;20042;-70
2023/06/20 00:38:32;;;;;;;16.92;11.65;;;17.90;99.90;;;;;;4993315;28;20518;-69
2023/06/20 00:40:58;;;;;;;19.77;11.93;;;17.90;99.90;;;;;;5036555;28;20054;-69
2023/06/20 00:43:24;;;;;;;20.30;13.43;;;17.90;99.90;;;;;;5005857;28;20046;-69
2023/06/20 00:45:50;;;;;;;19.38;12.63;;;17.80;99.90;;;;;;5007393;28;20042;-70
2023/06/20 00:48:17;;;;;;;20.65;13.23;;;17.80;99.90;;;;;;5001051;28;20652;-69
2023/06/20 00:50:44;;;;;;;18.88;13.23;;;17.80;99.90;;;;;;4996174;28;20494;-69
2023/06/20 00:53:10;;;;;;;18.48;13.50;;;17.80;99.90;;;;;;4999169;28;20038;-69
2023/06/20 00:55:37;;;;;;;24.20;15.77;;;17.80;99.90;;;;;;4997496;28;20057;-70
2023/06/20 00:58:04;;;;;;;21.42;14.52;;;17.80;99.90;;;;;;5025843;28;20125;-69
2023/06/20 01:00:32;;;;;;;24.02;15.85;;;17.80;99.90;;;;;;5031175;28;20260;-69
2023/06/20 01:03:06;;;;;;;21.85;15.43;;;17.80;99.90;;;;;;4975660;28;20113;-70
2023/06/20 01:05:33;;;;;;;20.30;13.77;;;17.80;99.90;;;;;;4999581;28;20515;-69
2023/06/20 01:08:10;;;;;;;23.70;15.63;;;17.70;99.90;;;;;;5016501;28;20053;-69
2023/06/20 01:10:44;;;;;;;21.95;15.07;;;17.70;99.90;;;;;;4976407;28;20411;-70
2023/06/20 01:13:32;;;;;;;18.25;14.02;;;17.70;99.90;;;;;;4997520;28;20045;-70
2023/06/20 01:16:19;;;;;;;19.05;13.60;;;17.70;99.90;;;;;;4998644;28;20050;-70
2023/06/20 01:19:09;;;;;;;19.27;14.20;;;17.70;99.90;;;;;;4992442;28;21847;-70
2023/06/20 01:21:42;;;;;;;19.77;13.65;;;17.70;99.90;;;;;;4999642;28;20499;-70
2023/06/20 01:24:20;;;;;;;21.08;14.98;;;17.80;99.90;;;;;;5004183;28;20037;-68
2023/06/20 01:27:12;;;;;;;22.50;14.48;;;17.70;99.90;;;;;;4996794;28;20384;-68
2023/06/20 01:29:37;;;;;;;;;;;17.70;99.90;;;;;;4982034;28;20038;-68
2023/06/20 01:32:09;;;;;;;20.77;14.57;;;17.70;99.90;;;;;;4999215;28;19975;-68
2023/06/20 01:34:44;;;;;;;21.27;14.30;;;17.70;99.90;;;;;;4999769;28;20046;-68
2023/06/20 01:37:15;;;;;;;22.25;14.15;;;17.70;99.90;;;;;;4996970;28;20050;-68
2023/06/20 01:39:51;;;;;;;22.07;14.70;;;17.70;99.90;;;;;;4999723;28;20038;-68
2023/06/20 01:42:21;;;;;;;21.25;14.75;;;17.70;99.90;;;;;;5030281;28;20056;-68
2023/06/20 01:44:47;;;;;;;21.50;14.77;;;17.70;99.90;;;;;;5013749;28;20058;-68
2023/06/20 01:47:16;;;;;;;22.08;14.95;;;17.70;99.90;;;;;;4998359;28;20525;-68
2023/06/20 01:49:43;;;;;;;20.88;14.57;;;17.70;99.90;;;;;;4998790;28;20077;-68
2023/06/20 01:52:10;;;;;;;23.73;13.93;;;17.70;99.90;;;;;;4997342;28;21560;-68
2023/06/20 01:54:39;;;;;;;18.90;13.63;;;17.70;99.90;;;;;;5030082;28;20069;-68
2023/06/20 01:57:05;;;;;;;26.70;15.68;;;17.70;99.90;;;;;;4997370;28;20049;-68
2023/06/20 01:59:32;;;;;;;17.92;12.70;;;17.70;99.90;;;;;;4999692;28;20124;-68
2023/06/20 02:01:59;;;;;;;19.95;13.07;;;17.60;99.90;;;;;;4992216;28;20412;-67
2023/06/20 02:04:26;;;;;;;18.83;13.55;;;17.60;99.90;;;;;;4997831;28;20046;-68
2023/06/20 02:06:53;;;;;;;19.58;14.02;;;17.60;99.90;;;;;;4998413;28;20045;-68
2023/06/20 02:09:19;;;;;;;19.10;12.55;;;17.60;99.90;;;;;;4999460;28;20042;-68
2023/06/20 02:11:46;;;;;;;19.35;12.50;;;17.60;99.90;;;;;;4982010;28;20134;-68
2023/06/20 02:14:13;;;;;;;17.42;11.68;;;17.60;99.90;;;;;;4981692;28;20069;-68
2023/06/20 02:16:40;;;;;;;16.38;10.70;;;17.60;99.90;;;;;;4999886;28;20050;-68
2023/06/20 02:19:07;;;;;;;16.88;11.60;;;17.60;99.90;;;;;;4995957;28;20096;-68
2023/06/20 02:21:37;;;;;;;16.10;11.40;;;17.60;99.90;;;;;;4999458;28;20046;-67
2023/06/20 02:24:05;;;;;;;16.42;11.25;;;17.50;99.90;;;;;;4998473;28;20442;-68
2023/06/20 02:26:32;;;;;;;16.98;10.90;;;17.50;99.90;;;;;;4998214;28;20534;-68
2023/06/20 02:29:01;;;;;;;16.67;10.15;;;17.50;99.90;;;;;;4998528;28;20096;-68
2023/06/20 02:31:30;;;;;;;17.48;10.77;;;17.50;99.90;;;;;;4997684;28;20124;-68
2023/06/20 02:33:58;;;;;;;17.90;10.95;;;17.60;99.90;;;;;;5013989;28;20124;-68
2023/06/20 02:36:27;;;;;;;17.02;10.73;;;17.50;99.90;;;;;;4999282;28;20150;-68
2023/06/20 02:38:55;;;;;;;16.30;11.05;;;17.50;99.90;;;;;;5000528;28;20513;-68
2023/06/20 02:41:21;;;;;;;18.35;10.98;;;17.50;99.90;;;;;;5006550;28;20446;-68
2023/06/20 02:43:47;;;;;;;20.45;10.93;;;17.50;99.90;;;;;;5004962;28;20038;-68
2023/06/20 02:46:46;;;;;;;18.77;10.73;;;17.50;99.90;;;;;;4998807;28;20047;-68
2023/06/20 02:49:43;;;;;;;17.73;11.13;;;17.50;99.90;;;;;;4981216;28;20080;-68
2023/06/20 02:52:41;;;;;;;17.58;10.93;;;17.50;99.90;;;;;;5007422;28;20522;-68
2023/06/20 02:55:27;;;;;;;20.77;11.32;;;17.50;99.90;;;;;;5010138;28;20149;-68
2023/06/20 02:57:56;;;;;;;17.83;10.75;;;17.50;99.90;;;;;;5005266;28;20037;-68
2023/06/20 03:00:23;;;;;;;15.50;11.10;;;17.40;99.90;;;;;;5008457;28;20053;-68
2023/06/20 03:03:00;;;;;;;17.80;10.13;;;17.40;99.90;;;;;;5008714;28;20046;-68
2023/06/20 03:05:30;;;;;;;15.45;9.90;;;17.40;99.90;;;;;;5000652;28;20759;-68
2023/06/20 03:07:56;;;;;;;17.63;10.88;;;17.40;99.90;;;;;;5007086;28;20727;-68
2023/06/20 03:10:23;;;;;;;19.25;11.73;;;17.40;99.90;;;;;;5004005;28;20046;-67
2023/06/20 03:12:50;;;;;;;18.00;10.20;;;17.30;99.90;;;;;;5005116;28;20556;-67
2023/06/20 03:15:16;;;;;;;16.33;11.40;;;17.30;99.90;;;;;;5040919;28;20115;-68
2023/06/20 03:17:42;;;;;;;22.92;10.48;;;17.40;99.90;;;;;;5010388;28;20406;-68
2023/06/20 03:20:09;;;;;;;18.13;10.60;;;17.40;99.90;;;;;;5005915;28;20495;-68
2023/06/20 03:22:35;;;;;;;19.33;11.25;;;17.40;99.90;;;;;;5008210;28;20050;-68
2023/06/20 03:25:01;;;;;;;18.42;10.95;;;17.40;99.90;;;;;;4990702;28;20046;-67
2023/06/20 03:27:27;;;;;;;16.95;10.50;;;17.40;99.90;;;;;;5004003;28;20446;-69
2023/06/20 03:29:52;;;;;;;19.95;10.90;;;17.40;99.90;;;;;;5002798;28;20053;-69
2023/06/20 03:32:18;;;;;;;16.05;10.90;;;17.40;99.90;;;;;;5010234;28;20120;-69
2023/06/20 03:34:44;;;;;;;18.17;10.55;;;17.40;99.90;;;;;;5007184;28;20041;-69
2023/06/20 03:37:10;;;;;;;20.27;12.13;;;17.40;99.90;;;;;;4994016;28;20054;-69
2023/06/20 03:39:36;;;;;;;17.13;10.13;;;17.40;99.90;;;;;;5019605;28;20057;-69
2023/06/20 03:42:02;;;;;;;15.88;11.88;;;17.40;99.90;;;;;;5006571;28;20060;-69
2023/06/20 03:44:27;;;;;;;18.10;10.73;;;17.40;99.90;;;;;;5009431;28;20049;-69
2023/06/20 03:46:53;;;;;;;15.75;11.05;;;17.30;99.90;;;;;;5008153;28;20051;-69
2023/06/20 03:49:19;;;;;;;15.80;10.63;;;17.40;99.90;;;;;;5007317;28;20045;-69
2023/06/20 03:51:44;;;;;;;19.58;11.40;;;17.30;99.90;;;;;;5006480;28;20046;-69
2023/06/20 03:54:10;;;;;;;18.52;11.15;;;17.30;99.90;;;;;;5007104;28;20091;-69
2023/06/20 03:56:36;;;;;;;17.33;11.25;;;17.40;99.90;;;;;;4990148;28;20060;-69
2023/06/20 03:59:01;;;;;;;18.30;10.95;;;17.30;99.90;;;;;;5004892;28;20134;-69
2023/06/20 04:01:27;;;;;;;18.30;12.07;;;17.40;99.90;;;;;;5005676;28;20096;-69
2023/06/20 04:03:54;;;;;;;19.05;12.60;;;17.40;99.90;;;;;;4999056;28;20037;-69
2023/06/20 04:06:19;;;;;;;18.92;12.18;;;17.40;99.90;;;;;;4999902;28;21393;-69
2023/06/20 04:08:45;;;;;;;18.42;11.40;;;17.40;99.90;;;;;;4982576;28;20053;-69
2023/06/20 04:11:11;;;;;;;18.00;11.75;;;17.40;99.90;;;;;;4998667;28;20133;-69
2023/06/20 04:13:37;;;;;;;20.67;11.73;;;17.40;99.90;;;;;;5030375;28;20131;-69
2023/06/20 04:16:02;;;;;;;17.27;12.23;;;17.40;99.90;;;;;;4999764;28;20680;-69
2023/06/20 04:18:28;;;;;;;17.60;12.13;;;17.40;99.90;;;;;;4997933;28;20048;-69
2023/06/20 04:20:54;;;;;;;17.23;11.82;;;17.40;99.90;;;;;;5029715;28;20084;-69
2023/06/20 04:23:20;;;;;;;22.60;13.05;;;17.40;99.90;;;;;;4997335;28;20403;-69
2023/06/20 04:25:45;;;;;;;16.90;11.02;;;17.40;99.90;;;;;;4997947;28;20183;-69
2023/06/20 04:28:11;;;;;;;16.85;12.00;;;17.40;99.90;;;;;;4995843;28;20613;-69
2023/06/20 04:30:37;;;;;;;20.80;13.18;;;17.40;99.90;;;;;;4996910;28;21350;-69
2023/06/20 04:33:02;;;;;;;16.98;11.60;;;17.40;99.90;;;;;;4997212;28;20045;-69
2023/06/20 04:35:29;;;;;;;16.35;12.32;;;17.40;99.90;;;;;;4999172;28;21078;-69
2023/06/20 04:37:56;;;;;;;17.65;11.50;;;17.40;99.90;;;;;;4999852;28;20041;-69
2023/06/20 04:40:22;;;;;;;18.17;11.75;;;17.40;99.90;;;;;;5029112;28;20171;-69
2023/06/20 04:42:48;;;;;;;17.38;12.05;;;17.40;99.90;;;;;;5005677;28;20415;-69
2023/06/20 04:45:14;;;;;;;19.42;12.82;;;17.50;99.90;;;;;;5001661;28;20141;-69
2023/06/20 04:47:41;;;;;;;18.88;11.23;;;17.50;99.90;;;;;;5003507;28;20061;-69
2023/06/20 04:50:09;;;;;;;19.27;12.40;;;17.50;99.90;;;;;;5038975;28;20046;-69
2023/06/20 04:52:35;;;;;;;18.17;12.45;;;17.50;99.90;;;;;;5005765;28;20062;-69
2023/06/20 04:55:04;;;;;;;16.90;11.82;;;17.50;99.90;;;;;;5006779;28;20376;-69
2023/06/20 04:57:31;;;;;;;18.50;12.50;;;17.50;99.90;;;;;;5008844;28;20408;-69
2023/06/20 04:59:57;;;;;;;16.35;10.98;;;17.50;99.90;;;;;;5006513;28;20081;-69
2023/06/20 05:02:23;;;;;;;18.85;12.25;;;17.50;99.90;;;;;;5002335;28;20497;-69
2023/06/20 05:04:49;;;;;;;18.90;11.10;;;17.50;99.90;;;;;;5006028;28;20054;-69
2023/06/20 05:07:15;;;;;;;21.75;11.82;;;17.60;99.90;;;;;;5039660;28;20052;-69
2023/06/20 05:09:40;;;;;;;18.55;11.95;;;17.60;99.90;;;;;;5004879;28;20084;-69
2023/06/20 05:12:06;;;;;;;15.75;10.60;;;17.60;99.90;;;;;;5003685;28;20097;-69
2023/06/20 05:14:32;;;;;;;16.58;10.73;;;17.60;99.90;;;;;;5007380;28;20053;-69
2023/06/20 05:16:58;;;;;;;16.20;10.80;;;17.60;99.90;;;;;;5002068;28;20041;-69
2023/06/20 05:19:23;;;;;;;21.10;11.02;;;17.60;99.90;;;;;;5000090;28;20540;-69
2023/06/20 05:21:49;;;;;;;14.60;9.80;;;17.70;99.90;;;;;;4993473;28;20494;-69
2023/06/20 05:24:15;;;;;;;14.23;9.63;;;17.70;99.90;;;;;;5023539;28;20029;-69
2023/06/20 05:26:41;;;;;;;15.30;10.60;;;17.70;99.90;;;;;;4996072;28;20053;-69
2023/06/20 05:29:06;;;;;;;16.33;10.13;;;17.70;99.90;;;;;;5000460;28;20576;-69
2023/06/20 05:31:32;;;;;;;16.75;10.27;;;17.70;99.90;;;;;;5002935;28;20060;-69
2023/06/20 05:33:58;;;;;;;15.52;10.30;;;17.70;99.90;;;;;;5000601;28;20406;-69
2023/06/20 05:36:24;;;;;;;15.30;8.88;;;17.80;99.90;;;;;;4995105;28;20048;-69
2023/06/20 05:38:50;;;;;;;16.50;8.90;;;17.70;99.90;;;;;;4997796;28;20103;-69
2023/06/20 05:41:16;;;;;;;14.40;9.20;;;17.70;99.90;;;;;;4996272;28;21695;-69
2023/06/20 05:43:42;;;;;;;16.23;9.63;;;17.80;99.90;;;;;;4995916;28;20049;-69
2023/06/20 05:46:08;;;;;;;12.48;9.05;;;17.80;99.90;;;;;;4999596;28;20493;-69
2023/06/20 05:48:34;;;;;;;14.25;8.45;;;17.80;99.90;;;;;;4998057;28;20058;-69
2023/06/20 05:51:00;;;;;;;13.88;8.27;;;17.90;99.90;;;;;;5001620;28;20045;-69
2023/06/20 05:53:27;;;;;;;11.70;8.48;;;17.90;99.90;;;;;;5004045;28;20041;-69
2023/06/20 05:55:53;;;;;;;12.85;8.43;;;17.90;99.90;;;;;;4999589;28;20143;-70
2023/06/20 05:58:19;;;;;;;15.02;8.70;;;17.90;99.90;;;;;;5001821;28;20046;-69
2023/06/20 06:00:45;;;;;;;13.77;8.88;;;17.90;99.90;;;;;;5012891;28;20196;-69
2023/06/20 06:03:15;;;;;;;15.82;9.52;;;18.00;99.90;;;;;;5001496;28;20141;-69
2023/06/20 06:05:40;;;;;;;14.60;9.52;;;17.90;99.90;;;;;;4999041;28;20046;-69
2023/06/20 06:08:06;;;;;;;16.38;10.00;;;17.90;99.90;;;;;;4988673;28;20038;-69
2023/06/20 06:10:33;;;;;;;14.90;9.45;;;18.00;99.90;;;;;;5006274;28;20176;-69
2023/06/20 06:12:58;;;;;;;14.45;9.15;;;18.00;99.90;;;;;;5037879;28;20046;-69
2023/06/20 06:15:24;;;;;;;13.35;9.18;;;18.00;99.90;;;;;;5004165;28;20042;-69
2023/06/20 06:17:50;;;;;;;13.85;9.32;;;18.00;99.90;;;;;;5006225;28;20076;-69
2023/06/20 06:20:18;;;;;;;11.95;9.65;;;18.00;99.90;;;;;;4995912;28;20042;-69
2023/06/20 06:22:43;;;;;;;14.80;9.88;;;18.10;99.90;;;;;;4990544;28;20392;-69
2023/06/20 06:25:09;;;;;;;14.93;9.05;;;18.10;99.90;;;;;;5001691;28;20050;-69
2023/06/20 06:27:35;;;;;;;14.93;9.45;;;18.10;99.90;;;;;;4998823;28;20050;-69
2023/06/20 06:30:03;;;;;;;14.98;9.73;;;18.10;99.90;;;;;;5024243;28;20145;-69
2023/06/20 06:32:28;;;;;;;14.25;8.80;;;18.20;99.90;;;;;;5041355;28;20169;-69
2023/06/20 06:34:59;;;;;;;14.75;9.45;;;18.20;99.90;;;;;;5011190;28;20133;-69
2023/06/20 06:37:26;;;;;;;15.35;9.32;;;18.30;99.90;;;;;;5010663;28;20045;-69
2023/06/20 06:39:56;;;;;;;17.15;9.75;;;18.30;99.90;;;;;;4996676;28;20046;-69
2023/06/20 06:42:23;;;;;;;17.35;10.30;;;18.40;99.90;;;;;;5010440;28;20053;-70
2023/06/20 06:44:49;;;;;;;17.08;10.20;;;18.40;99.90;;;;;;5008920;28;20092;-69
2023/06/20 06:47:15;;;;;;;16.27;10.25;;;18.50;99.90;;;;;;5005888;28;20081;-70
2023/06/20 06:49:41;;;;;;;15.05;10.77;;;18.60;99.90;;;;;;4998173;28;20384;-70
2023/06/20 06:52:08;;;;;;;14.65;10.40;;;18.70;99.90;;;;;;4998733;28;20183;-70
2023/06/20 06:54:33;;;;;;;15.65;11.38;;;18.70;99.90;;;;;;5004360;28;20045;-70
2023/06/20 06:56:59;;;;;;;14.13;10.45;;;18.80;99.90;;;;;;5005820;28;20042;-69
2023/06/20 06:59:24;;;;;;;15.65;11.38;;;18.90;99.90;;;;;;5016970;28;20084;-69
2023/06/20 07:01:51;;;;;;;18.13;11.48;;;18.90;99.90;;;;;;5002920;28;20129;-69
2023/06/20 07:04:17;;;;;;;16.88;11.45;;;19.00;99.90;;;;;;4984699;28;20399;-70
2023/06/20 07:06:43;;;;;;;15.38;10.80;;;19.10;99.90;;;;;;5006380;28;20061;-70
2023/06/20 07:09:09;;;;;;;17.52;11.68;;;19.10;99.90;;;;;;5015881;28;20104;-70
2023/06/20 07:11:35;;;;;;;16.30;10.73;;;19.20;99.90;;;;;;4998512;28;20043;-70
2023/06/20 07:14:01;;;;;;;16.30;9.63;;;19.30;99.90;;;;;;5007275;28;20053;-70
2023/06/20 07:16:28;;;;;;;15.88;10.52;;;19.30;99.90;;;;;;5005982;28;20521;-70
2023/06/20 07:18:54;;;;;;;18.75;11.57;;;19.30;99.90;;;;;;5002295;28;20111;-70
2023/06/20 07:21:19;;;;;;;15.88;10.20;;;19.40;99.90;;;;;;4989156;28;20045;-69
2023/06/20 07:23:45;;;;;;;16.77;10.75;;;19.40;99.90;;;;;;5010077;28;20049;-70
2023/06/20 07:26:11;;;;;;;14.55;11.38;;;19.50;99.90;;;;;;4983462;28;20045;-70
2023/06/20 07:28:37;;;;;;;18.98;10.32;;;19.60;99.90;;;;;;5007275;28;20054;-70
2023/06/20 07:31:02;;;;;;;15.68;10.68;;;19.60;99.90;;;;;;5009591;28;20042;-69
2023/06/20 07:33:28;;;;;;;16.58;10.73;;;19.60;99.90;;;;;;5009945;28;20050;-70
2023/06/20 07:35:54;;;;;;;18.92;10.63;;;19.70;99.90;;;;;;5033372;28;20042;-70
2023/06/20 07:38:20;;;;;;;13.90;10.50;;;19.70;99.90;;;;;;5006460;28;20072;-70
2023/06/20 07:40:46;;;;;;;15.02;11.15;;;19.70;99.90;;;;;;5004005;28;20510;-70
2023/06/20 07:43:11;;;;;;;16.90;11.10;;;19.80;99.90;;;;;;5006678;28;20041;-70
2023/06/20 07:45:37;;;;;;;17.73;11.43;;;19.80;99.90;;;;;;5006155;28;20847;-70
2023/06/20 07:48:04;;;;;;;17.65;11.82;;;19.90;99.90;;;;;;5009307;28;20083;-70
2023/06/20 07:50:30;;;;;;;15.52;11.82;;;20.00;99.90;;;;;;5005658;28;20129;-70
2023/06/20 07:52:56;;;;;;;16.98;12.30;;;20.00;99.90;;;;;;5006733;28;20446;-70
2023/06/20 07:55:21;;;;;;;16.88;10.40;;;20.10;99.90;;;;;;5006520;28;20042;-70
2023/06/20 07:57:48;;;;;;;16.17;11.73;;;20.10;99.90;;;;;;5006570;28;20045;-70
2023/06/20 08:00:14;;;;;;;15.52;11.40;;;20.20;99.90;;;;;;5007386;28;20081;-71
2023/06/20 08:02:40;;;;;;;15.98;11.20;;;20.20;99.90;;;;;;5007111;28;20053;-70
2023/06/20 08:05:08;;;;;;;15.65;11.38;;;20.30;99.90;;;;;;5009241;28;20046;-69
2023/06/20 08:07:35;;;;;;;14.27;10.98;;;20.40;99.90;;;;;;5032711;28;20537;-70
2023/06/20 08:10:02;;;;;;;16.98;11.18;;;20.50;99.90;;;;;;5005033;28;20050;-70
2023/06/20 08:12:28;;;;;;;13.88;10.05;;;20.50;99.90;;;;;;5000248;28;20038;-71
2023/06/20 08:14:54;;;;;;;13.13;10.15;;;20.60;99.90;;;;;;5003501;28;20119;-71
2023/06/20 08:17:19;;;;;;;17.20;10.90;;;20.70;99.90;;;;;;5006426;28;20046;-70
2023/06/20 08:19:45;;;;;;;15.45;10.23;;;20.70;99.90;;;;;;5002389;28;20050;-70
2023/06/20 08:22:11;;;;;;;15.73;10.13;;;20.80;99.90;;;;;;5003458;28;20037;-70
2023/06/20 08:24:36;;;;;;;13.70;10.13;;;21.00;99.90;;;;;;5002946;28;20041;-71
2023/06/20 08:27:03;;;;;;;14.38;9.68;;;21.00;99.90;;;;;;5004913;28;20046;-70
2023/06/20 08:29:29;;;;;;;14.05;10.13;;;21.10;99.90;;;;;;5002814;28;20048;-70
2023/06/20 08:31:55;;;;;;;12.50;9.15;;;21.20;99.90;;;;;;5005032;28;20425;-70
2023/06/20 08:34:21;;;;;;;12.93;9.30;;;21.30;99.90;;;;;;5035309;28;20569;-69
2023/06/20 08:36:46;;;;;;;12.30;9.45;;;21.50;99.90;;;;;;5004643;28;20133;-71
2023/06/20 08:39:12;;;;;;;12.52;10.27;;;21.60;99.90;;;;;;5004253;28;20029;-70
2023/06/20 08:41:38;;;;;;;14.25;9.63;;;21.70;99.90;;;;;;5007314;28;20058;-70
2023/06/20 08:44:04;;;;;;;16.70;9.82;;;21.70;99.90;;;;;;5007517;28;20042;-70
2023/06/20 08:46:31;;;;;;;16.00;11.15;;;21.80;99.90;;;;;;5010923;28;20064;-71
2023/06/20 08:48:57;;;;;;;16.48;10.27;;;21.80;99.90;;;;;;4989017;28;20084;-70
2023/06/20 08:51:26;;;;;;;14.35;9.75;;;21.80;99.90;;;;;;5002208;28;20467;-71
2023/06/20 08:53:54;;;;;;;14.52;9.48;;;21.80;99.90;;;;;;5006547;28;20041;-71
2023/06/20 08:56:20;;;;;;;15.05;10.82;;;21.80;99.90;;;;;;5000208;28;20125;-71
2023/06/20 08:58:46;;;;;;;15.02;10.75;;;21.80;99.90;;;;;;5002595;28;20038;-71
2023/06/20 09:01:12;;;;;;;17.13;9.93;;;21.80;99.90;;;;;;5005748;28;20052;-71
2023/06/20 09:03:38;;;;;;;14.25;11.02;;;21.80;99.90;;;;;;5006373;28;20112;-71
2023/06/20 09:06:06;;;;;;;13.82;10.00;;;21.80;99.90;;;;;;4999674;28;20046;-71
2023/06/20 09:08:37;;;;;;;13.63;10.18;;;21.80;99.90;;;;;;5001618;28;20050;-71
2023/06/20 09:11:10;;;;;;;13.25;10.13;;;21.90;99.90;;;;;;5000803;28;20081;-72
2023/06/20 09:13:36;;;;;;;14.40;10.40;;;22.00;99.90;;;;;;4999412;28;20104;-72
2023/06/20 09:16:09;;;;;;;16.17;9.65;;;22.00;99.90;;;;;;5002809;28;20046;-72
2023/06/20 09:18:36;;;;;;;13.38;9.88;;;22.00;99.90;;;;;;5000889;28;20050;-71
2023/06/20 09:21:02;;;;;;;13.20;9.77;;;22.10;99.90;;;;;;5031811;28;20608;-71
2023/06/20 09:23:32;;;;;;;14.45;10.18;;;22.10;99.90;;;;;;5001650;28;20076;-72
2023/06/20 09:26:14;;;;;;;13.02;10.43;;;22.10;99.90;;;;;;5000750;28;20072;-72
2023/06/20 09:28:39;;;;;;;12.30;9.77;;;22.10;99.90;;;;;;4998588;28;20045;-72
2023/06/20 09:31:05;;;;;;;13.25;10.10;;;22.20;99.90;;;;;;5005765;28;20107;-72
2023/06/20 09:33:31;;;;;;;13.15;9.30;;;22.20;99.90;;;;;;4998445;28;20042;-72
2023/06/20 09:36:17;;;;;;;14.73;10.05;;;22.20;99.90;;;;;;4986085;28;20084;-72
2023/06/20 09:38:52;;;;;;;15.27;9.75;;;22.30;99.90;;;;;;4998579;28;20123;-72
2023/06/20 09:41:18;;;;;;;12.35;8.60;;;22.30;99.90;;;;;;5016581;28;20207;-72
2023/06/20 09:43:44;;;;;;;14.32;8.68;;;22.40;99.90;;;;;;5013688;28;20041;-72
2023/06/20 09:46:10;;;;;;;14.82;10.30;;;22.40;99.90;;;;;;5001949;28;20070;-72
2023/06/20 09:48:37;;;;;;;13.45;9.45;;;22.50;99.90;;;;;;4999741;28;20136;-72
2023/06/20 09:51:05;;;;;;;11.55;8.48;;;22.60;99.90;;;;;;5002832;28;20552;-72
2023/06/20 09:53:46;;;;;;;13.15;8.52;;;22.70;99.90;;;;;;4999196;28;20069;-73
2023/06/20 09:56:14;;;;;;;12.10;8.10;;;22.90;99.90;;;;;;4997182;28;20075;-73
2023/06/20 09:58:47;;;;;;;12.45;7.53;;;23.00;99.90;;;;;;5002607;28;20087;-72
2023/06/20 10:01:16;;;;;;;10.57;7.18;;;23.10;99.90;;;;;;5003098;28;20064;-73
2023/06/20 10:03:42;;;;;;;13.68;7.22;;;23.20;99.90;;;;;;4978611;28;20138;-72
2023/06/20 10:06:09;;;;;;;11.57;7.00;;;23.40;99.90;;;;;;5002523;28;20048;-73
2023/06/20 10:08:35;;;;;;;8.60;6.72;;;23.50;99.90;;;;;;5004598;28;20522;-73
2023/06/20 10:11:01;;;;;;;9.73;5.95;;;23.70;99.90;;;;;;5000135;28;20041;-73
2023/06/20 10:13:28;;;;;;;11.95;6.20;;;23.90;99.90;;;;;;4986278;28;20507;-72
2023/06/20 10:15:54;;;;;;;9.63;5.85;;;24.00;99.90;;;;;;5032745;28;20415;-73
2023/06/20 10:18:40;;;;;;;9.05;5.85;;;24.20;99.90;;;;;;5003024;28;20052;-73
2023/06/20 10:21:08;;;;;;;7.97;5.68;;;24.20;99.90;;;;;;5002512;28;20416;-72
2023/06/20 10:23:36;;;;;;;8.32;5.55;;;24.30;99.90;;;;;;5003298;28;20042;-73
2023/06/20 10:26:03;;;;;;;10.40;5.20;;;24.40;99.90;;;;;;4998345;28;20058;-73
2023/06/20 10:28:29;;;;;;;8.40;5.68;;;24.60;99.90;;;;;;5003267;28;20129;-73
2023/06/20 10:31:02;;;;;;;10.32;6.15;;;24.70;99.90;;;;;;4997710;28;20100;-73
2023/06/20 10:33:29;;;;;;;9.38;5.82;;;24.80;99.90;;;;;;5003172;28;20050;-73
2023/06/20 10:36:08;;;;;;;9.45;5.65;;;24.80;99.90;;;;;;5003275;28;20441;-73
2023/06/20 10:38:40;;;;;;;10.75;6.50;;;24.90;99.90;;;;;;4999070;28;20385;-73
2023/06/20 10:41:26;;;;;;;8.68;5.80;;;24.90;99.90;;;;;;4997878;28;20716;-73
2023/06/20 10:43:59;;;;;;;9.63;5.57;;;25.00;99.90;;;;;;5002326;28;20048;-73
2023/06/20 10:46:37;;;;;;;9.70;5.85;;;25.10;99.90;;;;;;5001580;28;20034;-74
2023/06/20 10:49:03;;;;;;;9.18;6.13;;;25.10;99.90;;;;;;4997820;28;20057;-73
2023/06/20 10:51:29;;;;;;;7.72;5.63;;;25.10;99.90;;;;;;5000650;28;20053;-73
2023/06/20 10:54:09;;;;;;;7.35;5.40;;;25.20;99.90;;;;;;4997683;28;20159;-73
2023/06/20 10:56:35;;;;;;;9.38;6.43;;;25.20;99.90;;;;;;5000233;28;20054;-73
2023/06/20 10:59:21;;;;;;;10.98;5.53;;;25.30;99.90;;;;;;5001648;28;20057;-73
2023/06/20 11:01:47;;;;;;;8.50;5.50;;;25.30;99.90;;;;;;5000664;28;20058;-73
2023/06/20 11:04:15;;;;;;;9.43;5.93;;;25.30;99.90;;;;;;5003544;28;20034;-73
2023/06/20 11:06:41;;;;;;;9.43;5.18;;;25.40;99.90;;;;;;5002889;28;20049;-72
2023/06/20 11:09:21;;;;;;;10.13;5.32;;;25.50;99.90;;;;;;5004860;28;20129;-74
2023/06/20 11:11:47;;;;;;;9.95;5.63;;;25.60;99.90;;;;;;5007635;28;20040;-73
2023/06/20 11:14:14;;;;;;;6.70;4.80;;;25.60;99.90;;;;;;5009617;28;20038;-73
2023/06/20 11:16:41;;;;;;;9.13;4.82;;;25.70;99.90;;;;;;5005535;28;20108;-74
2023/06/20 11:19:07;;;;;;;9.40;5.50;;;25.80;99.90;;;;;;5006997;28;20253;-73
2023/06/20 11:21:33;;;;;;;9.07;4.63;;;25.90;99.90;;;;;;5000249;28;20038;-73
2023/06/20 11:24:04;;;;;;;6.78;4.88;;;25.90;99.90;;;;;;4992599;28;20084;-74
2023/06/20 11:26:30;;;;;;;9.30;5.32;;;26.00;99.90;;;;;;5007217;28;20502;-74
2023/06/20 11:29:05;;;;;;;7.75;5.28;;;26.10;99.90;;;;;;5008870;28;20058;-74
2023/06/20 11:31:34;;;;;;;7.70;5.55;;;26.10;99.90;;;;;;5007511;28;20128;-73
2023/06/20 11:34:08;;;;;;;7.32;4.82;;;26.20;99.90;;;;;;5008145;28;20577;-73
2023/06/20 11:36:35;;;;;;;7.18;4.85;;;26.20;99.90;;;;;;5008621;28;20502;-74
2023/06/20 11:39:11;;;;;;;9.10;5.47;;;26.30;99.90;;;;;;5001631;28;20042;-74
2023/06/20 11:41:37;;;;;;;8.10;5.32;;;26.30;99.90;;;;;;5007191;28;20422;-74
2023/06/20 11:44:04;;;;;;;9.20;5.85;;;26.40;99.90;;;;;;5008651;28;20041;-74
2023/06/20 11:46:29;;;;;;;9.07;5.20;;;26.50;99.90;;;;;;5002313;28;20041;-74
2023/06/20 11:48:56;;;;;;;8.85;5.28;;;26.60;99.90;;;;;;5008138;28;20053;-74
2023/06/20 11:51:24;;;;;;;7.97;5.88;;;26.60;99.90;;;;;;5008489;28;20072;-74
2023/06/20 11:54:05;;;;;;;7.53;5.20;;;26.60;99.90;;;;;;5020480;28;20801;-74
2023/06/20 11:56:30;;;;;;;7.80;5.57;;;26.60;99.90;;;;;;5005058;28;20601;-74
2023/06/20 11:58:56;;;;;;;10.02;5.57;;;26.80;99.90;;;;;;5040032;28;20084;-74
2023/06/20 12:01:26;;;;;;;10.30;5.55;;;26.90;99.90;;;;;;5028443;28;20116;-74
2023/06/20 12:04:06;;;;;;;8.33;5.10;;;27.00;99.90;;;;;;5001181;28;20478;-73
2023/06/20 12:06:33;;;;;;;;;;;27.00;99.90;;;;;;5009945;28;20045;-73
2023/06/20 12:09:06;;;;;;;9.27;6.13;;;27.00;99.90;;;;;;5008829;28;20002;-72
2023/06/20 12:11:32;;;;;;;10.57;5.80;;;27.00;99.90;;;;;;5034652;28;20418;-74
2023/06/20 12:13:58;;;;;;;9.73;6.07;;;27.00;99.90;;;;;;4990606;28;20045;-73
2023/06/20 12:16:24;;;;;;;12.52;6.00;;;27.00;99.90;;;;;;5028530;28;20888;-74
2023/06/20 12:18:51;;;;;;;10.52;5.20;;;27.00;99.90;;;;;;5010260;28;20525;-74
2023/06/20 12:21:17;;;;;;;9.52;5.45;;;27.00;99.90;;;;;;5007618;28;20053;-74
2023/06/20 12:23:43;;;;;;;7.40;4.90;;;27.00;99.90;;;;;;5007087;28;20418;-74
2023/06/20 12:26:10;;;;;;;7.63;4.97;;;27.10;99.90;;;;;;5026166;28;20049;-74
2023/06/20 12:28:36;;;;;;;10.63;5.20;;;27.10;99.90;;;;;;5023255;28;20069;-74
2023/06/20 12:31:06;;;;;;;8.98;5.03;;;27.10;99.90;;;;;;5000939;28;20091;-74
2023/06/20 12:33:32;;;;;;;9.33;4.97;;;27.10;99.90;;;;;;5002795;28;20518;-74
2023/06/20 12:36:01;;;;;;;8.80;4.90;;;27.10;99.90;;;;;;5004912;28;20042;-74
2023/06/20 12:38:29;;;;;;;7.30;4.80;;;27.10;99.90;;;;;;4980894;28;20050;-75